Tips voor optimaal zoeken

Zoek op trefwoorden of stel een vraag
Typ een trefwoord zoals beurskoers, of stel een vraag zoals Wat is het laatste nieuws over Amerika?.
Exacte zinnen zoeken
Zet aanhalingstekens om een exacte woordcombinatie te vinden, bijvoorbeeld "Johan Cruijff ArenA".
Resultaten filteren
Na het zoeken kunt u filteren op publicatieperiode, bron, onderwerp en auteur.
Zoekopdrachten volgen
Wilt u updates ontvangen over een onderwerp? Via "Mijn nieuws" kunt u een term volgen.
Close sub menu
NASDAQ
NY-Nasdaq Composite 26.217,8279 +118,05 +0,45% 23:15
Stijgers 1 dag
Dalers 1 dag
Indices 1 dag
Charter Communications Inc +8,7%
SiriusXM Holdings Inc +7,5%
PayPal Holdings Inc +4,3%
Lucid Group Inc +3,5%
Constellation Energy Corporation +3,5%
Regeneron Pharmaceuticals Inc +3,4%
NVIDIA Corporation +3,2%
Biogen Inc +3,1%
Illumina Inc +3,0%
T Mobile US Inc +2,8%
NXP Semiconductors NV +2,7%
Align Technology Inc +2,7%
Palo Alto Networks Inc -9,3%
Datadog Inc -6,5%
CrowdStrike Holdings Inc -5,4%
Fortinet Inc -4,5%
Verisk Analytics Inc -3,2%
Zscaler Inc -3,2%
Autodesk Inc -2,4%
CoStar Group Inc -2,3%
Moderna Inc -2,2%
Adobe Inc -2,2%
Cadence Design Systems Inc -2,0%
Honeywell International Inc -1,9%
AEX* 1.102,48-0,1%
Midkap* 1.107,42+0,1%
AMS Next 20®* 1.593,98+0,5%
FTSE100 10.752,330,0%
Dow Jones 53.061,95+0,6%
NASDAQ 26.217,8279+0,5%
S&P500 7.666,60+0,5%
S&P Future 7.687,25+0,1%
BEL20** 5.825,71-0,1%
CAC 40** 8.280,63-0,3%
DAX 25.881,44+0,2%
* real time    ** slotkoers
AandelenKoersVorige+/-+/- %HoogLaagVolumeTijd
Adobe Inc 279,79 286,08 -6,29 -2,2% -- -- 5.322 22:15
Advanced Micro Devices Inc 457,06 459,61 -2,55 -0,6% -- -- 49.298 22:15
Airbnb Inc 183,26 182,55 +0,72 +0,4% -- -- 429 22:15
Align Technology Inc 159,13 154,96 +4,19 +2,7% 160,85 155,50 687.060 22:00
Alphabet Inc 333,78 332,03 +1,75 +0,5% -- -- 42.253 22:15
Alphabet Inc 337,12 335,02 +2,10 +0,6% -- -- 72.824 22:15
Amazon.com Inc 254,98 254,92 +0,06 0,0% -- -- 50.859 22:15
American Electric Power Company 123,57 122,96 +0,61 +0,5% -- -- 435 22:15
Amgen Inc 442,84 438,12 +4,72 +1,1% -- -- 232 22:15
Analog Devices Inc 355,71 354,52 +1,19 +0,3% -- -- 678 22:15
Ansys 374,30 374,30 -- -- -- -- 0 22:00
Apple Inc 324,96 325,13 -0,17 -0,1% -- -- 82.245 22:15
Applied Materials Inc 438,46 441,85 -3,39 -0,8% -- -- 11.473 22:15
ASML Holding NV 1.682,30 1.665,14 +17,16 +1,0% -- -- 8.590 22:15
AstraZeneca Plc 161,63 162,47 -0,84 -0,5% -- -- 1.431 22:15
Atlassian Corporation PLC 186,44 187,03 -0,59 -0,3% -- -- 176 22:15
Autodesk Inc 241,73 247,69 -5,96 -2,4% -- -- 171 22:15
Automatic Data Processing Inc 281,16 283,49 -2,33 -0,8% -- -- 1 22:15
Baker Hughes Company 64,63 63,66 +0,98 +1,5% -- -- 567 22:15
Biogen Inc 222,67 216,04 +6,63 +3,1% -- -- 125 22:15
Booking Holdings Inc 199,60 195,69 +3,91 +2,0% -- -- 49 22:15
Broadcom Inc 367,24 369,68 -2,44 -0,7% -- -- 261.961 22:15
Cadence Design Systems Inc 306,67 313,04 -6,37 -2,0% -- -- 115 22:15
Charter Communications Inc 158,97 146,19 +12,78 +8,7% -- -- 119 22:15
Cintas Corporation 198,09 200,59 -2,50 -1,2% -- -- 2 22:15
Cisco Systems Inc 109,46 109,74 -0,29 -0,3% -- -- 6.265 22:15
Cognizant Technology Solutions Corp 63,40 63,39 +0,01 0,0% -- -- 50 22:00
Comcast Corp 26,81 26,30 +0,51 +1,9% -- -- 1.671 22:15
Constellation Energy Corporation 290,04 280,31 +9,73 +3,5% -- -- 2.920 22:15
Copart Inc 32,16 32,47 -0,31 -0,9% -- -- 13.605 22:15
CoStar Group Inc 31,26 31,98 -0,72 -2,3% -- -- 101 22:15
Costco Wholesale Corporation 928,48 939,96 -11,48 -1,2% -- -- 1.009 22:15
CrowdStrike Holdings Inc 203,42 215,07 -11,65 -5,4% -- -- 32.178 22:15
CSX Corporation 48,65 48,70 -0,05 -0,1% -- -- 296 22:00
Datadog Inc 209,23 223,84 -14,61 -6,5% -- -- 4.765 22:15
DexCom Inc 89,69 90,14 -0,45 -0,5% -- -- 182 22:15
Diamondback Energy Inc 203,42 203,16 +0,26 +0,1% -- -- 1.779 22:15
Dollar Tree Inc 131,91 131,71 +0,20 +0,2% -- -- 5 22:15
eBay Inc 106,70 104,98 +1,72 +1,6% -- -- 1 22:15
Electronic Arts Inc 209,70 209,70 -- -- -- -- 0 22:15
Enphase Energy Inc 35,52 35,54 -0,02 -0,1% -- -- 4.066 22:15
Exelon Corporation 43,97 43,83 +0,14 +0,3% -- -- 3 22:15
Fastenal Company 47,93 48,75 -0,82 -1,7% -- -- 491 22:00
Fortinet Inc 154,54 161,85 -7,31 -4,5% -- -- 631 22:15
Gilead Sciences Inc 149,61 149,92 -0,31 -0,2% -- -- 625 22:15
Global Foundries Inc 43,97 43,93 +0,04 +0,1% -- -- 729 22:15
Honeywell International Inc 206,07 209,98 -3,91 -1,9% -- -- 236 22:15
IDEXX Laboratories Inc 538,99 545,16 -6,17 -1,1% -- -- 3 22:15
Illumina Inc 213,25 207,13 +6,12 +3,0% -- -- 205 22:15
Intel Corporation 90,05 88,97 +1,08 +1,2% -- -- 427.363 22:15
Intuit Inc 342,94 344,93 -1,99 -0,6% -- -- 1.701 22:15
Intuitive Surgical Inc 371,88 369,25 +2,63 +0,7% -- -- 839 22:15
JD com Inc 27,83 27,90 -0,07 -0,3% -- -- 89.804 22:15
Keurig Dr Pepper Inc 32,59 31,89 +0,70 +2,2% -- -- 71 22:00
KLA Corporation 172,26 170,89 +1,37 +0,8% -- -- 3.781 22:15
Kraft Heinz Company 26,26 25,87 +0,39 +1,5% -- -- 1.545 22:15
Lam Research Corporation 288,32 290,20 -1,88 -0,6% -- -- 7.777 22:15
Lucid Group Inc 4,71 4,55 +0,16 +3,5% -- -- 12.975 22:15
Lululemon Athletica Inc 120,07 118,00 +2,07 +1,8% -- -- 7.342 22:15
Marriott International Inc 333,14 334,55 -1,41 -0,4% -- -- 101 22:15
Marvell Technology Inc 206,48 210,39 -3,91 -1,9% -- -- 124.896 22:15
MercadoLibre Inc 2.006,58 1.963,49 +43,09 +2,2% -- -- 61 22:15
Meta Platforms Inc 592,85 578,54 +14,31 +2,5% -- -- 49.925 22:15
Microchip Technology Inc 72,76 71,41 +1,35 +1,9% -- -- 2.874 22:15
Micron Technology Inc 956,08 933,44 +22,64 +2,4% -- -- 178.350 22:15
Microsoft Corporation 496,82 501,02 -4,20 -0,8% -- -- 50.788 22:15
Moderna Inc 150,81 154,27 -3,46 -2,2% -- -- 57.946 22:15
Mondelez International Inc 62,45 61,61 +0,84 +1,4% -- -- 287 22:15
Monster Beverage Corporation 44,42 44,99 -0,57 -1,3% -- -- 942 22:15
Netflix Inc 82,73 80,81 +1,92 +2,4% -- -- 30.665 22:15
NVIDIA Corporation 224,41 217,44 +6,97 +3,2% -- -- 467.554 22:15
NXP Semiconductors NV 228,50 222,40 +6,10 +2,7% -- -- 237 22:15
O Reilly Automotive Inc 86,97 87,95 -0,98 -1,1% -- -- 815 22:15
Old Dominion Freight Line Inc 187,61 187,01 +0,60 +0,3% -- -- 1 22:00
PACCAR Inc 122,13 122,45 -0,32 -0,3% -- -- 39 22:15
Palo Alto Networks Inc 328,48 362,09 -33,61 -9,3% -- -- 10.796 22:15
Paychex Inc 124,00 125,64 -1,64 -1,3% -- -- 1 22:15
PayPal Holdings Inc 54,67 52,40 +2,27 +4,3% -- -- 6.026 22:15
PDD Holdings Inc 82,25 83,17 -0,92 -1,1% -- -- 22.584 22:15
PepsiCo Inc 140,52 139,79 +0,73 +0,5% -- -- 3.290 22:15
QUALCOMM Inc 169,96 166,61 +3,35 +2,0% -- -- 13.589 22:15
Regeneron Pharmaceuticals Inc 852,03 823,82 +28,21 +3,4% -- -- 49 22:15
Rivian Automotive Inc 15,61 15,54 +0,08 +0,5% -- -- 21.317 22:15
Ross Stores Inc 230,85 229,24 +1,61 +0,7% -- -- 143 22:00
Seagen 228,89 228,74 -- -- -- -- 0 22:00
SiriusXM Holdings Inc 29,70 27,62 +2,08 +7,5% -- -- 41 22:15
Starbucks Corporation 106,72 106,15 +0,57 +0,5% -- -- 671 22:15
Synopsys Inc 415,97 414,82 +1,15 +0,3% -- -- 599 22:15
T Mobile US Inc 187,30 182,16 +5,14 +2,8% -- -- 894 22:15
Tesla Inc 357,01 356,09 +0,92 +0,3% -- -- 194.965 22:50
Texas Instruments Incorporated 254,80 253,34 +1,46 +0,6% -- -- 1.519 22:15
Verisk Analytics Inc 188,16 194,35 -6,19 -3,2% -- -- 73 22:00
Vertex Pharmaceuticals Inc 556,75 547,65 +9,10 +1,7% -- -- 146 22:15
Walgreens Boots Alliance 11,98 11,98 -- -- -- -- 0 22:00
Warner Brothers Discovery Inc 28,39 28,32 +0,07 +0,2% -- -- 1.318 22:15
Workday Inc 200,87 198,38 +2,49 +1,3% -- -- 482 22:15
Xcel Energy Inc 75,51 75,89 -0,38 -0,5% 76,25 74,71 5.700.510 22:15
Zoom Communications Inc 95,86 94,90 +0,96 +1,0% -- -- 2.316 22:15
Zscaler Inc 172,73 178,37 -5,64 -3,2% -- -- 5.285 22:15
Powered by

Schakel browser notificaties in

Schakel browser notificaties in om meldingen te ontvangen op dit apparaat.

Browser notificaties inschakelen

U heeft browser notificaties voor fd.nl eerder geweigerd. Ga naar browser instellingen en sta browser notificaties toe voor fd.nl. De precieze handelingen zijn afhankelijk van uw browser.

U volgt een onderwerp

Wanneer deze zoekterm in een artikel voorkomt, zult u deze terugvinden in Mijn nieuws onder ‘Eurobonds’.

Wilt u via de FD App meldingen ontvangen voor dit onderwerp?

Wilt u via de FD App meldingen ontvangen voor dit onderwerp?

Ons privacy statement is van toepassing.

Meldingen

Wanneer deze zoekterm in een artikel voorkomt, zult u deze terugvinden in Mijn nieuws onder ‘Eurobonds’.

Wilt u via de FD App meldingen ontvangen voor dit onderwerp?

Wilt u via de FD App meldingen ontvangen voor dit onderwerp?